createdAt,value
2022-08-16T00:01:51.521Z,98182.84
2022-08-16T00:04:18.167Z,98184.59
2022-08-16T00:06:46.532Z,98182.06
2022-08-16T00:09:13.143Z,98184.09
2022-08-16T00:11:40.859Z,98181.13
2022-08-16T00:14:08.715Z,98192.47
2022-08-16T00:17:05.646Z,98189.19
2022-08-16T00:19:22.489Z,98180.59
2022-08-16T00:21:53.068Z,98178.38
2022-08-16T00:24:30.887Z,98179.06
2022-08-16T00:26:58.955Z,98182.94
2022-08-16T00:29:25.747Z,98186.03
2022-08-16T00:32:00.406Z,98182.03
2022-08-16T00:34:41.325Z,98178.44
2022-08-16T00:37:20.338Z,98177.41
2022-08-16T00:39:47.797Z,98172.41
2022-08-16T00:42:30.543Z,98178.81
2022-08-16T00:44:58.117Z,98169.59
2022-08-16T00:47:25.822Z,98176.47
2022-08-16T00:49:56.877Z,98174.72
2022-08-16T00:52:29.536Z,98175.50
2022-08-16T00:54:57.264Z,98178.00
2022-08-16T00:57:24.062Z,98173.59
2022-08-16T00:59:58.913Z,98174.19
2022-08-16T01:02:31.304Z,98180.50
2022-08-16T01:05:11.375Z,98193.03
2022-08-16T01:07:49.755Z,98204.47
2022-08-16T01:10:18.966Z,98228.47
2022-08-16T01:12:45.401Z,98218.03
2022-08-16T01:15:11.888Z,98241.09
2022-08-16T01:17:38.933Z,98239.94
2022-08-16T01:20:24.622Z,98231.25
2022-08-16T01:22:59.291Z,98236.09
2022-08-16T01:25:34.500Z,98258.78
2022-08-16T01:28:08.887Z,98243.00
2022-08-16T01:30:36.744Z,98241.09
2022-08-16T01:33:15.636Z,98238.41
2022-08-16T01:35:42.450Z,98243.22
2022-08-16T01:38:09.054Z,98243.59
2022-08-16T01:40:46.488Z,98240.19
2022-08-16T01:43:13.429Z,98232.91
2022-08-16T01:45:41.733Z,98245.63
2022-08-16T01:51:16.437Z,98242.03
2022-08-16T01:53:43.311Z,98243.66
2022-08-16T01:56:24.432Z,98247.63
2022-08-16T01:58:51.600Z,98247.81
2022-08-16T02:01:18.217Z,98238.47
2022-08-16T02:03:44.669Z,98242.28
2022-08-16T02:06:17.207Z,98245.91
2022-08-16T02:09:01.646Z,98251.53
2022-08-16T02:11:28.039Z,98269.00
2022-08-16T02:14:18.527Z,98253.91
2022-08-16T02:16:47.882Z,98257.56
2022-08-16T02:19:16.448Z,98261.53
2022-08-16T02:22:08.976Z,98271.25
2022-08-16T02:24:32.715Z,98266.84
2022-08-16T02:27:07.835Z,98262.53
2022-08-16T02:29:35.115Z,98263.06
2022-08-16T02:32:51.289Z,98262.75
2022-08-16T02:34:50.872Z,98257.13
2022-08-16T02:37:22.859Z,98252.81
2022-08-16T02:39:54.117Z,98276.25
2022-08-16T02:42:21.015Z,98250.44
2022-08-16T02:44:47.603Z,98247.69
2022-08-16T02:47:24.884Z,98248.78
2022-08-16T02:50:28.012Z,98245.00
2022-08-16T02:52:38.947Z,98237.69
2022-08-16T02:55:11.841Z,98243.41
2022-08-16T02:57:54.057Z,98248.75
2022-08-16T03:00:33.923Z,98230.59
2022-08-16T03:03:01.602Z,98238.88
2022-08-16T03:05:31.008Z,98240.06
2022-08-16T03:07:58.218Z,98249.66
2022-08-16T03:10:33.318Z,98248.66
2022-08-16T03:13:00.941Z,98249.72
2022-08-16T03:15:28.070Z,98260.16
2022-08-16T03:17:54.802Z,98267.69
2022-08-16T03:20:31.999Z,98263.69
2022-08-16T03:22:59.210Z,98264.09
2022-08-16T03:25:25.845Z,98254.78
2022-08-16T03:28:07.653Z,98270.81
2022-08-16T03:30:34.320Z,98264.22
2022-08-16T03:33:01.640Z,98263.00
2022-08-16T03:35:32.784Z,98279.25
2022-08-16T03:38:02.708Z,98271.84
2022-08-16T03:40:32.834Z,98284.28
2022-08-16T03:43:18.741Z,98264.50
2022-08-16T03:45:46.291Z,98275.84
2022-08-16T03:48:15.157Z,98273.50
2022-08-16T03:50:59.895Z,98262.81
2022-08-16T03:53:27.132Z,98277.84
2022-08-16T03:56:04.631Z,98265.22
2022-08-16T03:58:32.966Z,98267.22
2022-08-16T04:00:59.740Z,98282.66
2022-08-16T04:03:26.175Z,98286.75
2022-08-16T04:05:56.449Z,98287.88
2022-08-16T04:08:24.541Z,98287.72
2022-08-16T04:10:53.438Z,98277.50
2022-08-16T04:14:00.120Z,98268.31
2022-08-16T04:16:06.720Z,98276.88
2022-08-16T04:18:33.667Z,98283.28
2022-08-16T04:21:00.999Z,98275.97
2022-08-16T04:23:27.371Z,98279.88
2022-08-16T04:25:54.312Z,98275.53
2022-08-16T04:28:52.044Z,98280.84
2022-08-16T04:31:10.614Z,98278.66
2022-08-16T04:33:37.320Z,98279.50
2022-08-16T04:36:04.779Z,98284.09
2022-08-16T04:38:32.472Z,98277.34
2022-08-16T04:40:58.980Z,98279.00
2022-08-16T04:43:26.271Z,98279.81
2022-08-16T04:46:00.517Z,98290.13
2022-08-16T04:48:32.739Z,98290.97
2022-08-16T04:51:11.743Z,98294.53
2022-08-16T04:53:39.556Z,98284.09
2022-08-16T04:56:11.581Z,98293.28
2022-08-16T04:58:45.761Z,98292.44
2022-08-16T05:01:13.020Z,98305.94
2022-08-16T05:03:59.943Z,98302.50
2022-08-16T05:06:41.966Z,98295.41
2022-08-16T05:09:10.904Z,98306.63
2022-08-16T05:11:37.492Z,98299.88
2022-08-16T05:14:06.918Z,98310.38
2022-08-16T05:16:33.731Z,98313.31
2022-08-16T05:19:00.453Z,98313.81
2022-08-16T05:21:27.118Z,98317.16
2022-08-16T05:24:02.400Z,98306.44
2022-08-16T05:26:32.629Z,98322.38
2022-08-16T05:28:59.029Z,98326.47
2022-08-16T05:31:29.537Z,98315.88
2022-08-16T05:33:59.410Z,98312.38
2022-08-16T05:36:34.278Z,98313.47
2022-08-16T05:39:03.348Z,98318.94
2022-08-16T05:41:30.663Z,98314.91
2022-08-16T05:43:58.997Z,98302.88
2022-08-16T05:46:29.700Z,98302.34
2022-08-16T05:49:03.658Z,98296.13
2022-08-16T05:51:38.754Z,98306.41
2022-08-16T05:54:06.855Z,98300.34
2022-08-16T05:56:34.270Z,98315.84
2022-08-16T05:59:03.924Z,98312.03
2022-08-16T06:01:38.277Z,98316.78
2022-08-16T06:04:05.180Z,98328.63
2022-08-16T06:06:40.315Z,98332.19
2022-08-16T06:09:10.057Z,98321.63
2022-08-16T06:11:36.577Z,98331.38
2022-08-16T06:14:03.252Z,98330.31
2022-08-16T06:16:31.781Z,98328.88
2022-08-16T06:18:59.278Z,98343.47
2022-08-16T06:21:36.641Z,98338.25
2022-08-16T06:24:03.446Z,98338.94
2022-08-16T06:26:57.468Z,98340.59
2022-08-16T06:29:24.555Z,98336.81
2022-08-16T06:31:51.270Z,98346.13
2022-08-16T06:34:55.555Z,98343.66
2022-08-16T06:37:04.185Z,98343.94
2022-08-16T06:39:30.597Z,98350.53
2022-08-16T06:42:00.854Z,98347.22
2022-08-16T06:44:27.381Z,98363.59
2022-08-16T06:46:53.774Z,98358.72
2022-08-16T06:49:20.463Z,98345.72
2022-08-16T06:51:48.871Z,98359.25
2022-08-16T06:54:15.543Z,98368.03
2022-08-16T06:56:41.961Z,98364.16
2022-08-16T06:59:09.022Z,98360.72
2022-08-16T07:01:46.320Z,98370.38
2022-08-16T07:04:31.754Z,98361.03
2022-08-16T07:06:59.954Z,98362.19
2022-08-16T07:09:29.733Z,98362.97
2022-08-16T07:11:57.017Z,98346.75
2022-08-16T07:14:30.501Z,98366.56
2022-08-16T07:16:58.188Z,98366.94
2022-08-16T07:20:01.729Z,98376.41
2022-08-16T07:22:39.013Z,98374.94
2022-08-16T07:24:58.420Z,98367.47
2022-08-16T07:27:25.071Z,98370.75
2022-08-16T07:29:51.502Z,98373.06
2022-08-16T07:32:29.137Z,98372.50
2022-08-16T07:34:56.341Z,98378.78
2022-08-16T07:37:23.281Z,98381.91
2022-08-16T07:39:50.765Z,98387.63
2022-08-16T07:42:26.008Z,98381.03
2022-08-16T07:45:01.276Z,98396.63
2022-08-16T07:47:31.686Z,98390.13
2022-08-16T07:49:58.517Z,98398.44
2022-08-16T07:52:24.944Z,98386.22
2022-08-16T07:54:56.533Z,98387.06
2022-08-16T07:57:24.027Z,98388.59
2022-08-16T07:59:51.010Z,98398.66
2022-08-16T08:02:20.299Z,98401.94
2022-08-16T08:04:47.098Z,98393.69
2022-08-16T08:07:14.409Z,98390.88
2022-08-16T08:09:43.568Z,98390.22
2022-08-16T08:12:10.224Z,98388.81
2022-08-16T08:14:56.718Z,98388.00
2022-08-16T08:17:23.081Z,98395.50
2022-08-16T08:19:53.242Z,98400.31
2022-08-16T08:22:22.272Z,98395.13
2022-08-16T08:24:48.826Z,98399.56
2022-08-16T08:27:22.398Z,98399.38
2022-08-16T08:30:49.642Z,98404.84
2022-08-16T08:32:58.624Z,98399.97
2022-08-16T08:35:24.500Z,98380.09
2022-08-16T08:37:55.698Z,98408.84
2022-08-16T08:40:24.477Z,98403.59
2022-08-16T08:42:54.430Z,98396.03
2022-08-16T08:45:44.911Z,98394.44
2022-08-16T08:48:11.063Z,98400.00
2022-08-16T08:50:57.417Z,98402.19
2022-08-16T08:53:29.961Z,98398.28
2022-08-16T08:55:59.116Z,98410.06
2022-08-16T08:58:25.996Z,98409.06
2022-08-16T09:01:01.281Z,98413.03
2022-08-16T09:03:28.301Z,98415.00
2022-08-16T09:05:58.855Z,98409.38
2022-08-16T09:08:27.380Z,98411.47
2022-08-16T09:10:58.866Z,98408.81
2022-08-16T09:13:28.531Z,98412.75
2022-08-16T09:15:59.656Z,98404.50
2022-08-16T09:18:27.188Z,98403.22
2022-08-16T09:21:04.496Z,98408.69
2022-08-16T09:23:36.409Z,98412.78
2022-08-16T09:26:03.423Z,98420.81
2022-08-16T09:29:15.408Z,98411.66
2022-08-16T09:31:36.377Z,98421.19
2022-08-16T09:34:07.816Z,98407.56
2022-08-16T09:36:34.617Z,98395.09
2022-08-16T09:39:01.042Z,98403.75
2022-08-16T09:41:28.139Z,98393.19
2022-08-16T09:43:59.354Z,98399.97
2022-08-16T09:46:33.440Z,98396.88
2022-08-16T09:49:12.590Z,98398.25
2022-08-16T09:51:39.379Z,98399.94
2022-08-16T09:54:05.828Z,98400.94
2022-08-16T09:56:32.414Z,98398.72
2022-08-16T09:59:05.449Z,98407.34
2022-08-16T10:01:37.541Z,98400.44
2022-08-16T10:04:06.483Z,98402.19
2022-08-16T10:06:50.361Z,98391.16
2022-08-16T10:09:18.167Z,98391.47
2022-08-16T10:11:50.542Z,98398.25
2022-08-16T10:14:17.675Z,98400.28
2022-08-16T10:16:48.958Z,98402.31
2022-08-16T10:19:15.485Z,98393.81
2022-08-16T10:21:46.043Z,98399.50
2022-08-16T10:24:28.181Z,98397.31
2022-08-16T10:27:16.312Z,98391.47
2022-08-16T10:30:00.979Z,98388.59
2022-08-16T10:32:30.529Z,98401.13
2022-08-16T10:34:58.784Z,98388.31
2022-08-16T10:37:32.615Z,98400.88
2022-08-16T10:40:03.022Z,98393.97
2022-08-16T10:42:30.050Z,98398.88
2022-08-16T10:44:56.528Z,98391.59
2022-08-16T10:47:23.124Z,98395.16
2022-08-16T10:49:50.571Z,98401.56
2022-08-16T10:52:18.236Z,98389.09
2022-08-16T10:57:33.370Z,98392.41
2022-08-16T11:00:01.572Z,98403.78
2022-08-16T11:02:59.478Z,98387.31
2022-08-16T11:05:16.022Z,98389.72
2022-08-16T11:07:43.001Z,98391.50
2022-08-16T11:13:21.162Z,98399.28
2022-08-16T11:15:54.446Z,98392.50
2022-08-16T11:19:03.269Z,98393.72
2022-08-16T11:21:09.002Z,98398.38
2022-08-16T11:23:58.076Z,98407.78
2022-08-16T11:26:25.606Z,98395.31
2022-08-16T11:31:38.723Z,98393.41
2022-08-16T11:34:05.182Z,98395.38
2022-08-16T11:36:34.422Z,98398.53
2022-08-16T11:39:01.807Z,98404.97
2022-08-16T11:41:29.419Z,98394.34
2022-08-16T11:43:58.660Z,98395.78
2022-08-16T11:46:44.319Z,98393.19
2022-08-16T11:49:13.971Z,98405.94
2022-08-16T11:51:40.698Z,98394.44
2022-08-16T11:54:15.585Z,98399.38
2022-08-16T11:56:52.585Z,98399.94
2022-08-16T11:59:25.319Z,98389.19
2022-08-16T12:02:00.049Z,98398.69
2022-08-16T12:04:30.518Z,98387.47
2022-08-16T12:06:57.179Z,98386.53
2022-08-16T12:09:23.813Z,98384.84
2022-08-16T12:11:52.720Z,98378.84
2022-08-16T12:14:19.902Z,98386.00
2022-08-16T12:16:55.806Z,98374.88
2022-08-16T12:19:23.333Z,98373.22
2022-08-16T12:22:00.500Z,98378.66
2022-08-16T12:24:27.150Z,98373.38
2022-08-16T12:26:53.558Z,98383.34
2022-08-16T12:29:20.488Z,98371.97
2022-08-16T12:32:01.133Z,98367.66
2022-08-16T12:34:36.071Z,98367.22
2022-08-16T12:37:02.918Z,98371.28
2022-08-16T12:39:29.663Z,98366.38
2022-08-16T12:41:56.735Z,98371.09
2022-08-16T12:44:24.517Z,98360.91
2022-08-16T12:46:51.264Z,98368.38
2022-08-16T12:49:17.726Z,98374.47
2022-08-16T12:51:59.742Z,98369.22
2022-08-16T12:54:27.009Z,98373.03
2022-08-16T12:56:53.592Z,98362.97
2022-08-16T12:59:21.985Z,98375.13
2022-08-16T13:01:58.198Z,98362.97
2022-08-16T13:04:25.648Z,98363.47
2022-08-16T13:06:52.896Z,98372.91
2022-08-16T13:09:19.623Z,98362.97
2022-08-16T13:11:49.249Z,98366.16
2022-08-16T13:14:31.191Z,98363.06
2022-08-16T13:16:59.932Z,98363.41
2022-08-16T13:19:35.116Z,98361.75
2022-08-16T13:22:19.620Z,98352.03
2022-08-16T13:24:46.336Z,98360.56
2022-08-16T13:27:13.220Z,98350.56
2022-08-16T13:29:43.749Z,98351.28
2022-08-16T13:32:10.547Z,98364.91
2022-08-16T13:34:57.125Z,98349.09
2022-08-16T13:37:23.513Z,98352.97
2022-08-16T13:39:49.954Z,98357.03
2022-08-16T13:42:16.607Z,98346.41
2022-08-16T13:44:55.875Z,98353.25
2022-08-16T13:47:30.304Z,98358.44
2022-08-16T13:49:57.073Z,98355.94
2022-08-16T13:52:24.180Z,98357.22
2022-08-16T13:54:51.911Z,98351.38
2022-08-16T13:57:18.322Z,98354.72
2022-08-16T13:59:47.034Z,98350.91
2022-08-16T14:02:17.389Z,98352.34
2022-08-16T14:04:44.244Z,98342.47
2022-08-16T14:07:10.690Z,98344.03
2022-08-16T14:09:40.168Z,98338.31
2022-08-16T14:12:09.712Z,98336.72
2022-08-16T14:14:36.443Z,98343.75
2022-08-16T14:17:04.313Z,98343.78
2022-08-16T14:19:30.709Z,98335.75
2022-08-16T14:22:14.365Z,98330.88
2022-08-16T14:24:45.355Z,98330.72
2022-08-16T14:27:13.610Z,98326.50
2022-08-16T14:29:42.052Z,98327.09
2022-08-16T14:32:32.543Z,98325.66
2022-08-16T14:34:59.747Z,98321.53
2022-08-16T14:37:26.472Z,98325.03
2022-08-16T14:39:54.338Z,98334.06
2022-08-16T14:42:20.799Z,98332.84
2022-08-16T14:44:47.339Z,98318.75
2022-08-16T14:47:14.483Z,98317.09
2022-08-16T14:49:41.112Z,98321.78
2022-08-16T14:52:07.515Z,98316.34
2022-08-16T14:54:34.759Z,98322.06
2022-08-16T14:57:01.208Z,98320.69
2022-08-16T14:59:30.771Z,98329.75
2022-08-16T15:02:01.155Z,98314.03
2022-08-16T15:04:39.331Z,98321.94
2022-08-16T15:07:11.142Z,98320.66
2022-08-16T15:09:44.346Z,98311.97
2022-08-16T15:12:26.959Z,98308.19
2022-08-16T15:14:57.856Z,98323.63
2022-08-16T15:17:25.950Z,98324.91
2022-08-16T15:19:53.182Z,98317.31
2022-08-16T15:22:20.239Z,98313.81
2022-08-16T15:24:49.059Z,98307.44
2022-08-16T15:27:16.086Z,98318.69
2022-08-16T15:29:42.699Z,98308.91
2022-08-16T15:32:09.928Z,98302.66
2022-08-16T15:34:53.241Z,98308.91
2022-08-16T15:37:42.688Z,98314.66
2022-08-16T15:40:26.714Z,98310.09
2022-08-16T15:43:02.371Z,98315.00
2022-08-16T15:45:29.067Z,98301.06
2022-08-16T15:47:56.701Z,98307.22
2022-08-16T15:50:23.829Z,98308.84
2022-08-16T15:52:50.378Z,98310.72
2022-08-16T15:55:29.649Z,98318.44
2022-08-16T15:58:01.774Z,98317.25
2022-08-16T16:00:48.341Z,98315.38
2022-08-16T16:03:15.158Z,98317.06
2022-08-16T16:05:41.747Z,98313.19
2022-08-16T16:08:12.216Z,98309.72
2022-08-16T16:10:40.212Z,98313.75
2022-08-16T16:13:08.799Z,98309.03
2022-08-16T16:15:35.420Z,98303.31
2022-08-16T16:18:09.294Z,98304.53
2022-08-16T16:20:37.334Z,98309.72
2022-08-16T16:23:10.132Z,98308.06
2022-08-16T16:25:37.457Z,98308.25
2022-08-16T16:28:12.894Z,98304.56
2022-08-16T16:30:54.842Z,98310.66
2022-08-16T16:33:26.481Z,98314.50
2022-08-16T16:35:55.491Z,98304.34
2022-08-16T16:38:23.469Z,98304.56
2022-08-16T16:40:54.294Z,98309.22
2022-08-16T16:43:20.990Z,98316.44
2022-08-16T16:45:53.037Z,98317.34
2022-08-16T16:48:19.433Z,98314.09
2022-08-16T16:50:45.858Z,98310.94
2022-08-16T16:53:16.758Z,98316.09
2022-08-16T16:55:47.719Z,98311.91
2022-08-16T16:58:35.550Z,98309.47
2022-08-16T17:01:03.122Z,98318.16
2022-08-16T17:03:30.235Z,98312.22
2022-08-16T17:06:08.721Z,98313.25
2022-08-16T17:08:36.127Z,98320.50
2022-08-16T17:11:03.023Z,98317.53
2022-08-16T17:13:30.343Z,98324.06
2022-08-16T17:15:58.261Z,98315.22
2022-08-16T17:19:14.903Z,98328.34
2022-08-16T17:21:12.031Z,98336.06
2022-08-16T17:23:58.532Z,98329.16
2022-08-16T17:26:29.557Z,98324.47
2022-08-16T17:28:59.513Z,98337.88
2022-08-16T17:31:38.285Z,98341.19
2022-08-16T17:34:29.005Z,98337.16
2022-08-16T17:36:54.689Z,98338.47
2022-08-16T17:39:21.273Z,98345.34
2022-08-16T17:41:50.953Z,98338.59
2022-08-16T17:44:18.081Z,98351.81
2022-08-16T17:46:52.445Z,98340.56
2022-08-16T17:49:19.302Z,98348.78
2022-08-16T17:51:45.725Z,98344.47
2022-08-16T17:54:20.391Z,98358.44
2022-08-16T17:56:56.683Z,98353.63
2022-08-16T17:59:23.106Z,98364.34
2022-08-16T18:01:49.798Z,98372.94
2022-08-16T18:04:48.539Z,98370.66
2022-08-16T18:07:03.019Z,98370.28
2022-08-16T18:09:29.921Z,98367.78
2022-08-16T18:12:00.754Z,98367.03
2022-08-16T18:14:52.138Z,98362.84
2022-08-16T18:17:14.168Z,98372.84
2022-08-16T18:19:40.634Z,98371.84
2022-08-16T18:22:09.376Z,98370.00
2022-08-16T18:27:27.195Z,98369.75
2022-08-16T18:29:53.978Z,98379.00
2022-08-16T18:32:22.035Z,98383.00
2022-08-16T18:34:56.828Z,98384.97
2022-08-16T18:37:23.364Z,98385.91
2022-08-16T18:39:50.134Z,98385.16
2022-08-16T18:42:16.673Z,98379.19
2022-08-16T18:44:44.089Z,98385.63
2022-08-16T18:47:10.525Z,98390.88
2022-08-16T18:49:37.173Z,98395.88
2022-08-16T18:52:03.693Z,98396.13
2022-08-16T18:54:30.166Z,98386.22
2022-08-16T18:56:58.087Z,98391.03
2022-08-16T18:59:24.897Z,98385.81
2022-08-16T19:01:51.446Z,98388.97
2022-08-16T19:04:47.876Z,98390.94
2022-08-16T19:07:04.845Z,98390.34
2022-08-16T19:09:31.395Z,98391.59
2022-08-16T19:12:00.994Z,98401.25
2022-08-16T19:14:27.601Z,98401.69
2022-08-16T19:16:54.135Z,98405.13
2022-08-16T19:19:22.734Z,98405.41
2022-08-16T19:21:49.283Z,98405.47
2022-08-16T19:24:17.665Z,98405.13
2022-08-16T19:26:45.510Z,98405.25
2022-08-16T19:29:12.218Z,98407.78
2022-08-16T19:31:40.234Z,98414.09
2022-08-16T19:34:07.053Z,98411.66
2022-08-16T19:36:34.995Z,98409.13
2022-08-16T19:39:04.508Z,98405.66
2022-08-16T19:41:32.419Z,98410.84
2022-08-16T19:43:59.217Z,98417.47
2022-08-16T19:46:26.096Z,98421.16
2022-08-16T19:48:52.642Z,98417.94
2022-08-16T19:51:19.154Z,98416.69
2022-08-16T19:53:46.135Z,98422.47
2022-08-16T19:56:13.020Z,98416.88
2022-08-16T19:58:50.964Z,98416.28
2022-08-16T20:01:26.661Z,98424.00
2022-08-16T20:03:54.062Z,98426.69
2022-08-16T20:06:38.127Z,98427.28
2022-08-16T20:09:05.577Z,98424.59
2022-08-16T20:11:32.549Z,98430.38
2022-08-16T20:13:59.397Z,98435.00
2022-08-16T20:16:26.504Z,98429.53
2022-08-16T20:18:53.859Z,98431.00
2022-08-16T20:21:20.857Z,98429.00
2022-08-16T20:23:47.791Z,98439.06
2022-08-16T20:26:15.319Z,98437.81
2022-08-16T20:28:54.271Z,98427.91
2022-08-16T20:31:21.533Z,98429.81
2022-08-16T20:33:47.974Z,98426.47
2022-08-16T20:36:16.283Z,98430.41
2022-08-16T20:38:43.412Z,98433.75
2022-08-16T20:41:09.908Z,98437.50
2022-08-16T20:43:36.462Z,98437.53
2022-08-16T20:46:03.478Z,98441.25
2022-08-16T20:48:29.940Z,98438.38
2022-08-16T20:50:56.424Z,98436.47
2022-08-16T20:53:23.174Z,98440.84
2022-08-16T20:55:49.801Z,98441.88
2022-08-16T20:58:16.216Z,98440.22
2022-08-16T21:00:42.738Z,98444.13
2022-08-16T21:03:09.178Z,98443.31
2022-08-16T21:05:35.574Z,98439.16
2022-08-16T21:08:03.913Z,98442.38
2022-08-16T21:10:48.564Z,98442.56
2022-08-16T21:13:15.129Z,98446.84
2022-08-16T21:15:41.609Z,98452.03
2022-08-16T21:18:08.148Z,98448.72
2022-08-16T21:20:40.835Z,98450.66
2022-08-16T21:23:07.266Z,98448.31
2022-08-16T21:25:33.740Z,98451.81
2022-08-16T21:28:38.697Z,98443.13
2022-08-16T21:30:48.231Z,98450.81
2022-08-16T21:33:15.718Z,98449.59
2022-08-16T21:35:42.123Z,98450.22
2022-08-16T21:38:28.876Z,98450.00
2022-08-16T21:40:55.243Z,98446.69
2022-08-16T21:43:22.751Z,98451.84
2022-08-16T21:45:54.935Z,98441.69
2022-08-16T21:48:34.496Z,98446.28
2022-08-16T21:51:01.850Z,98452.91
2022-08-16T21:53:28.555Z,98446.03
2022-08-16T21:55:55.355Z,98458.31
2022-08-16T21:58:21.741Z,98457.28
2022-08-16T22:00:48.285Z,98457.69
2022-08-16T22:03:14.675Z,98452.66
2022-08-16T22:05:41.069Z,98453.94
2022-08-16T22:08:08.430Z,98458.28
2022-08-16T22:11:06.816Z,98453.91
2022-08-16T22:13:21.498Z,98452.88
2022-08-16T22:15:48.962Z,98455.06
2022-08-16T22:18:15.386Z,98452.03
2022-08-16T22:20:42.159Z,98454.13
2022-08-16T22:23:08.589Z,98452.06
2022-08-16T22:25:34.967Z,98463.06
2022-08-16T22:28:01.488Z,98461.59
2022-08-16T22:30:27.983Z,98468.31
2022-08-16T22:32:54.398Z,98459.13
2022-08-16T22:35:21.013Z,98453.28
2022-08-16T22:38:47.811Z,98459.81
2022-08-16T22:40:34.205Z,98461.03
2022-08-16T22:43:00.682Z,98459.81
2022-08-16T22:45:27.124Z,98460.56
2022-08-16T22:47:53.887Z,98459.72
2022-08-16T22:50:20.287Z,98456.34
2022-08-16T22:52:55.975Z,98462.22
2022-08-16T22:55:25.946Z,98450.78
2022-08-16T22:57:52.540Z,98454.84
2022-08-16T23:00:18.976Z,98457.22
2022-08-16T23:02:45.635Z,98453.47
2022-08-16T23:05:12.100Z,98454.81
2022-08-16T23:07:38.753Z,98447.78
2022-08-16T23:10:05.367Z,98447.66
2022-08-16T23:12:31.791Z,98446.66
2022-08-16T23:14:59.717Z,98446.38
2022-08-16T23:17:27.265Z,98440.69
2022-08-16T23:19:53.705Z,98441.19
2022-08-16T23:22:24.752Z,98437.28
2022-08-16T23:24:57.027Z,98441.00
2022-08-16T23:27:23.564Z,98432.34
2022-08-16T23:29:49.956Z,98436.28
2022-08-16T23:32:17.420Z,98431.06
2022-08-16T23:34:46.765Z,98432.16
2022-08-16T23:37:17.963Z,98435.88
2022-08-16T23:39:44.442Z,98428.56
2022-08-16T23:42:10.887Z,98433.19
2022-08-16T23:44:55.517Z,98422.78
2022-08-16T23:47:23.996Z,98432.13
2022-08-16T23:50:00.829Z,98440.44
2022-08-16T23:52:54.739Z,98438.03
2022-08-16T23:55:16.927Z,98436.88
2022-08-16T23:57:43.939Z,98436.13
